DLH4RT EDDH-EGLL
Flight info
| Callsign | DLH4RT |
|---|---|
| Flight time | N/A |
| Altitude | 40000 |
| Route | WSN4B/23 WSN N125 ITMIZ DCT ABNED L980 LOGAN |
| Aircraft | A388/J-SADE2E3FGHIJ3J4J5M1RWXY/LB1D1 |
Departure
| Time | 2026-05-03 20:17 |
|---|---|
| Airport | Hamburg Helmut Schmidt Airport (EDDH) |
Arrival
| Time | N/A |
|---|---|
| Airport | London Heathrow Airport (EGLL) |
| Time | Latitude | Longitude | Altitude | Speed | Heading |
|---|---|---|---|---|---|
| 2026-05-03 20:15 | 53.63663 | 10.00146 | 52 ft | 9 kts | 307° |
| 2026-05-03 20:15 | 53.63657 | 10.00086 | 50 ft | 9 kts | 240° |
| 2026-05-03 20:15 | 53.63629 | 10.00019 | 50 ft | 0 kts | 229° |
| 2026-05-03 20:16 | 53.63629 | 10.00018 | 50 ft | 4 kts | 229° |
| 2026-05-03 20:17 | 53.63374 | 9.99505 | 48 ft | 110 kts | 230° |
| 2026-05-03 20:17 | 53.62716 | 9.98187 | 296 ft | 165 kts | 226° |
| 2026-05-03 20:17 | 53.61981 | 9.96744 | 1171 ft | 155 kts | 231° |
| 2026-05-03 20:17 | 53.61336 | 9.95368 | 2122 ft | 151 kts | 233° |
| 2026-05-03 20:18 | 53.60633 | 9.93886 | 2504 ft | 173 kts | 232° |
| 2026-05-03 20:18 | 53.59838 | 9.92252 | 2789 ft | 189 kts | 232° |
| 2026-05-03 20:18 | 53.58961 | 9.90456 | 3335 ft | 204 kts | 231° |
| 2026-05-03 20:18 | 53.58095 | 9.88680 | 4616 ft | 195 kts | 230° |
| 2026-05-03 20:19 | 53.57236 | 9.86911 | 5757 ft | 198 kts | 232° |
| 2026-05-03 20:19 | 53.56511 | 9.84918 | 6816 ft | 202 kts | 243° |
| 2026-05-03 20:19 | 53.56004 | 9.82671 | 7822 ft | 212 kts | 248° |
| 2026-05-03 20:19 | 53.55486 | 9.80217 | 8506 ft | 234 kts | 248° |
| 2026-05-03 20:20 | 53.54899 | 9.77525 | 9159 ft | 255 kts | 247° |
| 2026-05-03 20:20 | 53.54273 | 9.74677 | 10083 ft | 262 kts | 247° |
| 2026-05-03 20:20 | 53.53621 | 9.71716 | 10669 ft | 281 kts | 247° |
| 2026-05-03 20:20 | 53.52913 | 9.68514 | 10997 ft | 304 kts | 248° |
| 2026-05-03 20:21 | 53.52163 | 9.65115 | 11624 ft | 314 kts | 248° |
| 2026-05-03 20:21 | 53.51411 | 9.61702 | 12478 ft | 317 kts | 248° |
| 2026-05-03 20:21 | 53.50642 | 9.58213 | 13367 ft | 320 kts | 248° |
| 2026-05-03 20:21 | 53.49861 | 9.54683 | 14165 ft | 324 kts | 248° |
| 2026-05-03 20:22 | 53.49070 | 9.51116 | 14916 ft | 328 kts | 248° |
| 2026-05-03 20:22 | 53.48267 | 9.47505 | 15689 ft | 332 kts | 248° |
| 2026-05-03 20:22 | 53.47456 | 9.43868 | 16449 ft | 335 kts | 248° |
| 2026-05-03 20:22 | 53.46634 | 9.40183 | 17186 ft | 339 kts | 248° |
| 2026-05-03 20:23 | 53.45801 | 9.36456 | 17909 ft | 343 kts | 248° |
| 2026-05-03 20:23 | 53.44957 | 9.32688 | 18575 ft | 347 kts | 248° |
| 2026-05-03 20:23 | 53.44102 | 9.28892 | 19198 ft | 350 kts | 247° |
| 2026-05-03 20:23 | 53.43248 | 9.25111 | 19801 ft | 353 kts | 247° |
| 2026-05-03 20:24 | 53.42381 | 9.21249 | 20403 ft | 356 kts | 247° |
| 2026-05-03 20:24 | 53.41503 | 9.17343 | 21007 ft | 360 kts | 246° |
| 2026-05-03 20:24 | 53.40614 | 9.13401 | 21594 ft | 363 kts | 246° |
| 2026-05-03 20:24 | 53.39715 | 9.09425 | 22188 ft | 367 kts | 246° |
| 2026-05-03 20:25 | 53.38807 | 9.05419 | 22781 ft | 369 kts | 246° |
| 2026-05-03 20:25 | 53.37889 | 9.01380 | 23361 ft | 373 kts | 245° |
| 2026-05-03 20:25 | 53.36962 | 8.97308 | 23873 ft | 376 kts | 245° |
| 2026-05-03 20:25 | 53.36028 | 8.93217 | 24391 ft | 378 kts | 245° |
| 2026-05-03 20:26 | 53.35404 | 8.90486 | 24733 ft | 380 kts | 245° |
| 2026-05-03 20:26 | 53.34138 | 8.84936 | 25426 ft | 384 kts | 246° |
| 2026-05-03 20:26 | 53.33207 | 8.80731 | 25966 ft | 387 kts | 246° |
| 2026-05-03 20:26 | 53.32279 | 8.76497 | 26512 ft | 390 kts | 246° |
| 2026-05-03 20:27 | 53.31354 | 8.72282 | 27186 ft | 392 kts | 246° |
| 2026-05-03 20:27 | 53.30408 | 8.67994 | 27798 ft | 395 kts | 246° |
| 2026-05-03 20:27 | 53.29449 | 8.63666 | 28367 ft | 399 kts | 246° |
| 2026-05-03 20:27 | 53.28490 | 8.59295 | 28996 ft | 403 kts | 246° |
| 2026-05-03 20:28 | 53.27854 | 8.56381 | 29372 ft | 405 kts | 246° |
| 2026-05-03 20:28 | 53.26550 | 8.50425 | 30158 ft | 410 kts | 246° |
| 2026-05-03 20:28 | 53.25602 | 8.45910 | 30660 ft | 415 kts | 248° |
| 2026-05-03 20:28 | 53.25025 | 8.42851 | 30973 ft | 418 kts | 249° |
| 2026-05-03 20:29 | 53.24176 | 8.38187 | 31506 ft | 422 kts | 249° |
| 2026-05-03 20:29 | 53.23037 | 8.31955 | 32175 ft | 426 kts | 249° |
| 2026-05-03 20:29 | 53.22442 | 8.28753 | 32505 ft | 429 kts | 248° |
| 2026-05-03 20:29 | 53.21252 | 8.22434 | 33153 ft | 434 kts | 248° |
| 2026-05-03 20:30 | 53.20633 | 8.19176 | 33527 ft | 436 kts | 248° |
| 2026-05-03 20:30 | 53.19712 | 8.14344 | 34008 ft | 440 kts | 248° |
| 2026-05-03 20:30 | 53.18778 | 8.09459 | 34397 ft | 444 kts | 248° |
| 2026-05-03 20:30 | 53.17845 | 8.04524 | 34835 ft | 448 kts | 249° |
| 2026-05-03 20:31 | 53.16926 | 7.99637 | 35351 ft | 449 kts | 249° |
| 2026-05-03 20:31 | 53.15991 | 7.94677 | 35908 ft | 449 kts | 249° |
| 2026-05-03 20:31 | 53.15053 | 7.89714 | 36466 ft | 449 kts | 250° |
| 2026-05-03 20:31 | 53.14110 | 7.84751 | 37020 ft | 449 kts | 250° |
| 2026-05-03 20:32 | 53.13167 | 7.79804 | 37580 ft | 449 kts | 250° |
| 2026-05-03 20:32 | 53.11910 | 7.73233 | 38322 ft | 449 kts | 251° |
| 2026-05-03 20:32 | 53.11269 | 7.69889 | 38656 ft | 449 kts | 251° |
| 2026-05-03 20:32 | 53.10260 | 7.64966 | 39076 ft | 449 kts | 247° |
| 2026-05-03 20:33 | 53.09047 | 7.60181 | 39470 ft | 450 kts | 245° |
| 2026-05-03 20:33 | 53.08294 | 7.57263 | 39694 ft | 450 kts | 246° |
| 2026-05-03 20:33 | 53.07324 | 7.53484 | 39910 ft | 454 kts | 246° |
| 2026-05-03 20:34 | 53.05371 | 7.45829 | 39914 ft | 454 kts | 246° |
| 2026-05-03 20:34 | 53.02910 | 7.36187 | 39899 ft | 454 kts | 246° |
| 2026-05-03 20:35 | 53.00435 | 7.26553 | 39903 ft | 454 kts | 246° |
| 2026-05-03 20:35 | 52.97946 | 7.16921 | 39904 ft | 454 kts | 246° |
| 2026-05-03 20:36 | 52.95465 | 7.07362 | 39885 ft | 455 kts | 245° |
| 2026-05-03 20:36 | 52.92069 | 6.98638 | 39890 ft | 452 kts | 224° |
| 2026-05-03 20:36 | 52.89628 | 6.95360 | 39896 ft | 453 kts | 213° |
| 2026-05-03 20:37 | 52.86818 | 6.93006 | 39895 ft | 455 kts | 201° |
| 2026-05-03 20:37 | 52.83751 | 6.91674 | 39898 ft | 458 kts | 190° |
| 2026-05-03 20:37 | 52.80556 | 6.91429 | 39885 ft | 463 kts | 179° |
| 2026-05-03 20:37 | 52.77372 | 6.92288 | 39890 ft | 468 kts | 167° |
| 2026-05-03 20:38 | 52.74286 | 6.94057 | 39894 ft | 471 kts | 162° |
| 2026-05-03 20:38 | 52.68368 | 6.97843 | 39926 ft | 472 kts | 161° |
| 2026-05-03 20:39 | 52.62083 | 7.00470 | 39928 ft | 464 kts | 179° |
| 2026-05-03 20:39 | 52.55625 | 7.01211 | 39904 ft | 466 kts | 179° |
| 2026-05-03 20:40 | 52.49143 | 7.01940 | 39917 ft | 468 kts | 179° |
| 2026-05-03 20:40 | 52.42637 | 7.02656 | 39930 ft | 469 kts | 179° |
| 2026-05-03 20:41 | 52.36115 | 7.03371 | 39942 ft | 470 kts | 179° |
| 2026-05-03 20:41 | 52.29575 | 7.04086 | 39933 ft | 471 kts | 179° |
| 2026-05-03 20:42 | 52.23099 | 7.04792 | 39942 ft | 471 kts | 179° |
| 2026-05-03 20:42 | 52.16561 | 7.05503 | 39944 ft | 471 kts | 179° |
| 2026-05-03 20:43 | 52.10026 | 7.06211 | 39942 ft | 471 kts | 179° |
| 2026-05-03 20:43 | 52.03497 | 7.06917 | 39951 ft | 470 kts | 179° |
| 2026-05-03 20:44 | 51.96968 | 7.07620 | 39952 ft | 470 kts | 179° |
| 2026-05-03 20:44 | 51.90444 | 7.08321 | 39953 ft | 470 kts | 179° |
| 2026-05-03 20:45 | 51.83963 | 7.09015 | 39950 ft | 470 kts | 179° |
| 2026-05-03 20:45 | 51.77508 | 7.09707 | 39435 ft | 461 kts | 179° |
| 2026-05-03 20:45 | 51.74314 | 7.10048 | 38864 ft | 459 kts | 179° |
| 2026-05-03 20:46 | 51.71143 | 7.10386 | 38168 ft | 457 kts | 179° |
| 2026-05-03 20:46 | 51.67976 | 7.10722 | 37385 ft | 454 kts | 179° |
| 2026-05-03 20:46 | 51.64828 | 7.11056 | 36596 ft | 453 kts | 179° |
| 2026-05-03 20:46 | 51.61690 | 7.11388 | 35792 ft | 451 kts | 179° |
| 2026-05-03 20:47 | 51.58563 | 7.11719 | 34958 ft | 449 kts | 179° |
| 2026-05-03 20:47 | 51.55445 | 7.12048 | 34117 ft | 448 kts | 179° |
| 2026-05-03 20:47 | 51.52341 | 7.12376 | 33117 ft | 447 kts | 179° |
| 2026-05-03 20:47 | 51.49262 | 7.12699 | 31928 ft | 450 kts | 180° |
| 2026-05-03 20:48 | 51.46132 | 7.13028 | 30870 ft | 451 kts | 180° |
| 2026-05-03 20:48 | 51.43014 | 7.13357 | 30066 ft | 446 kts | 180° |
| 2026-05-03 20:48 | 51.39966 | 7.13682 | 29688 ft | 431 kts | 180° |
| 2026-05-03 20:48 | 51.37032 | 7.13996 | 29410 ft | 414 kts | 180° |
| 2026-05-03 20:49 | 51.34184 | 7.14295 | 28688 ft | 409 kts | 180° |
| 2026-05-03 20:49 | 51.31353 | 7.14588 | 27949 ft | 405 kts | 180° |
| 2026-05-03 20:49 | 51.28557 | 7.15127 | 27248 ft | 405 kts | 174° |
| 2026-05-03 20:49 | 51.25826 | 7.16220 | 26536 ft | 404 kts | 166° |
| 2026-05-03 20:50 | 51.23253 | 7.17821 | 26135 ft | 401 kts | 160° |
| 2026-05-03 20:50 | 51.20763 | 7.19816 | 25885 ft | 400 kts | 158° |
| 2026-05-03 20:50 | 51.18259 | 7.21824 | 25648 ft | 400 kts | 158° |
| 2026-05-03 20:50 | 51.15855 | 7.23731 | 25410 ft | 399 kts | 159° |
| 2026-05-03 20:51 | 51.13378 | 7.25687 | 25160 ft | 397 kts | 159° |
| 2026-05-03 20:51 | 51.10908 | 7.27639 | 25006 ft | 397 kts | 158° |
| 2026-05-03 20:51 | 51.08448 | 7.29643 | 24987 ft | 397 kts | 158° |
| 2026-05-03 20:51 | 51.06000 | 7.31673 | 24988 ft | 397 kts | 158° |
| 2026-05-03 20:52 | 51.03546 | 7.33709 | 24959 ft | 397 kts | 158° |
| 2026-05-03 20:52 | 51.01100 | 7.35736 | 24754 ft | 396 kts | 158° |
| 2026-05-03 20:52 | 50.98658 | 7.37753 | 24574 ft | 395 kts | 158° |
| 2026-05-03 20:52 | 50.96223 | 7.39759 | 24376 ft | 394 kts | 158° |
| 2026-05-03 20:53 | 50.93791 | 7.41758 | 24068 ft | 393 kts | 158° |